sensor_id;sensor_type;location;lat;lon;timestamp;pressure;altitude;pressure_sealevel;temperature;humidity
55604;BME280;41468;48.838;9.330;2023-07-16T00:00:30;98129.00;;;21.25;100.00
55604;BME280;41468;48.838;9.330;2023-07-16T00:02:56;98133.91;;;21.21;100.00
55604;BME280;41468;48.838;9.330;2023-07-16T00:05:23;98160.22;;;21.29;100.00
55604;BME280;41468;48.838;9.330;2023-07-16T00:07:50;98164.78;;;21.23;100.00
55604;BME280;41468;48.838;9.330;2023-07-16T00:10:17;98167.53;;;21.10;100.00
55604;BME280;41468;48.838;9.330;2023-07-16T00:12:44;98177.13;;;20.92;100.00
55604;BME280;41468;48.838;9.330;2023-07-16T00:15:11;98154.28;;;20.88;100.00
55604;BME280;41468;48.838;9.330;2023-07-16T00:38:59;98184.91;;;20.85;100.00
55604;BME280;41468;48.838;9.330;2023-07-16T00:41:31;98188.75;;;20.74;100.00
55604;BME280;41468;48.838;9.330;2023-07-16T00:44:04;98171.44;;;20.70;100.00
55604;BME280;41468;48.838;9.330;2023-07-16T00:46:42;98178.19;;;20.69;100.00
55604;BME280;41468;48.838;9.330;2023-07-16T00:49:16;98176.09;;;20.73;100.00
55604;BME280;41468;48.838;9.330;2023-07-16T00:51:49;98177.69;;;20.87;100.00
55604;BME280;41468;48.838;9.330;2023-07-16T00:54:23;98185.88;;;20.78;100.00
55604;BME280;41468;48.838;9.330;2023-07-16T00:56:56;98175.13;;;20.80;100.00
55604;BME280;41468;48.838;9.330;2023-07-16T00:59:29;98162.13;;;20.77;100.00
55604;BME280;41468;48.838;9.330;2023-07-16T01:02:02;98159.38;;;20.77;100.00
55604;BME280;41468;48.838;9.330;2023-07-16T01:04:35;98157.47;;;20.87;100.00
55604;BME280;41468;48.838;9.330;2023-07-16T01:07:14;98164.59;;;20.88;100.00
55604;BME280;41468;48.838;9.330;2023-07-16T01:09:54;98161.91;;;20.84;100.00
55604;BME280;41468;48.838;9.330;2023-07-16T01:12:28;98161.03;;;20.74;100.00
55604;BME280;41468;48.838;9.330;2023-07-16T01:15:01;98191.25;;;20.85;100.00
55604;BME280;41468;48.838;9.330;2023-07-16T01:17:34;98203.31;;;20.79;100.00
55604;BME280;41468;48.838;9.330;2023-07-16T01:20:08;98206.19;;;20.75;100.00
55604;BME280;41468;48.838;9.330;2023-07-16T01:22:52;98214.75;;;20.81;100.00
55604;BME280;41468;48.838;9.330;2023-07-16T01:28:53;98218.78;;;20.92;100.00
55604;BME280;41468;48.838;9.330;2023-07-16T01:31:31;98214.22;;;20.86;100.00
55604;BME280;41468;48.838;9.330;2023-07-16T01:34:05;98210.56;;;20.89;100.00
55604;BME280;41468;48.838;9.330;2023-07-16T01:36:39;98205.88;;;20.86;100.00
55604;BME280;41468;48.838;9.330;2023-07-16T01:39:12;98211.25;;;21.06;100.00
55604;BME280;41468;48.838;9.330;2023-07-16T01:41:45;98217.50;;;21.10;100.00
55604;BME280;41468;48.838;9.330;2023-07-16T01:44:18;98221.94;;;21.07;100.00
55604;BME280;41468;48.838;9.330;2023-07-16T01:47:09;98212.84;;;21.07;100.00
55604;BME280;41468;48.838;9.330;2023-07-16T01:49:42;98227.31;;;20.98;100.00
55604;BME280;41468;48.838;9.330;2023-07-16T01:52:15;98217.34;;;20.88;100.00
55604;BME280;41468;48.838;9.330;2023-07-16T01:54:48;98221.53;;;20.80;100.00
55604;BME280;41468;48.838;9.330;2023-07-16T01:57:21;98204.66;;;20.87;100.00
55604;BME280;41468;48.838;9.330;2023-07-16T01:59:54;98200.53;;;20.79;100.00
55604;BME280;41468;48.838;9.330;2023-07-16T02:02:26;98187.84;;;20.65;100.00
55604;BME280;41468;48.838;9.330;2023-07-16T02:04:59;98191.94;;;20.44;100.00
55604;BME280;41468;48.838;9.330;2023-07-16T02:07:32;98215.50;;;20.36;100.00
55604;BME280;41468;48.838;9.330;2023-07-16T02:10:05;98225.94;;;20.15;100.00
55604;BME280;41468;48.838;9.330;2023-07-16T02:12:38;98227.66;;;20.09;100.00
55604;BME280;41468;48.838;9.330;2023-07-16T02:15:11;98240.66;;;20.12;100.00
55604;BME280;41468;48.838;9.330;2023-07-16T02:17:44;98238.59;;;20.00;100.00
55604;BME280;41468;48.838;9.330;2023-07-16T02:20:18;98227.31;;;19.91;100.00
55604;BME280;41468;48.838;9.330;2023-07-16T02:22:50;98227.06;;;19.85;100.00
55604;BME280;41468;48.838;9.330;2023-07-16T02:25:24;98204.81;;;19.72;100.00
55604;BME280;41468;48.838;9.330;2023-07-16T02:27:58;98217.88;;;19.72;100.00
55604;BME280;41468;48.838;9.330;2023-07-16T02:30:31;98222.63;;;19.71;100.00
55604;BME280;41468;48.838;9.330;2023-07-16T02:33:03;98234.56;;;19.68;100.00
55604;BME280;41468;48.838;9.330;2023-07-16T02:35:36;98236.22;;;19.82;100.00
55604;BME280;41468;48.838;9.330;2023-07-16T02:38:09;98245.00;;;19.97;100.00
55604;BME280;41468;48.838;9.330;2023-07-16T02:40:43;98236.06;;;19.89;100.00
55604;BME280;41468;48.838;9.330;2023-07-16T02:43:16;98231.31;;;19.90;100.00
55604;BME280;41468;48.838;9.330;2023-07-16T02:45:49;98217.81;;;19.75;100.00
55604;BME280;41468;48.838;9.330;2023-07-16T02:48:22;98233.03;;;19.67;100.00
55604;BME280;41468;48.838;9.330;2023-07-16T02:50:55;98228.88;;;19.75;100.00
55604;BME280;41468;48.838;9.330;2023-07-16T02:53:28;98229.66;;;19.92;100.00
55604;BME280;41468;48.838;9.330;2023-07-16T02:56:01;98240.38;;;19.90;100.00
55604;BME280;41468;48.838;9.330;2023-07-16T02:58:34;98246.53;;;19.81;100.00
55604;BME280;41468;48.838;9.330;2023-07-16T03:01:06;98241.00;;;19.81;100.00
55604;BME280;41468;48.838;9.330;2023-07-16T03:03:39;98248.09;;;19.82;100.00
55604;BME280;41468;48.838;9.330;2023-07-16T03:06:12;98245.78;;;19.97;100.00
55604;BME280;41468;48.838;9.330;2023-07-16T03:08:46;98245.16;;;19.90;100.00
55604;BME280;41468;48.838;9.330;2023-07-16T03:11:23;98266.72;;;19.82;100.00
55604;BME280;41468;48.838;9.330;2023-07-16T03:13:50;98265.66;;;19.76;100.00
55604;BME280;41468;48.838;9.330;2023-07-16T03:16:17;98266.34;;;19.80;100.00
55604;BME280;41468;48.838;9.330;2023-07-16T03:18:44;98260.25;;;19.89;100.00
55604;BME280;41468;48.838;9.330;2023-07-16T03:21:14;98258.75;;;19.84;100.00
55604;BME280;41468;48.838;9.330;2023-07-16T03:23:41;98254.50;;;19.79;100.00
55604;BME280;41468;48.838;9.330;2023-07-16T03:26:08;98284.97;;;19.79;100.00
55604;BME280;41468;48.838;9.330;2023-07-16T03:28:39;98309.56;;;19.77;100.00
55604;BME280;41468;48.838;9.330;2023-07-16T03:31:06;98318.03;;;19.70;100.00
55604;BME280;41468;48.838;9.330;2023-07-16T03:33:33;98313.03;;;19.61;100.00
55604;BME280;41468;48.838;9.330;2023-07-16T03:36:00;98313.81;;;19.62;100.00
55604;BME280;41468;48.838;9.330;2023-07-16T03:38:27;98313.03;;;19.61;100.00
55604;BME280;41468;48.838;9.330;2023-07-16T03:40:54;98296.84;;;19.60;100.00
55604;BME280;41468;48.838;9.330;2023-07-16T03:43:21;98309.84;;;19.63;100.00
55604;BME280;41468;48.838;9.330;2023-07-16T03:45:48;98334.41;;;19.61;100.00
55604;BME280;41468;48.838;9.330;2023-07-16T03:48:15;98335.75;;;19.53;100.00
55604;BME280;41468;48.838;9.330;2023-07-16T03:50:42;98319.50;;;19.55;100.00
55604;BME280;41468;48.838;9.330;2023-07-16T03:53:09;98337.75;;;19.52;100.00
55604;BME280;41468;48.838;9.330;2023-07-16T03:55:36;98337.97;;;19.41;100.00
55604;BME280;41468;48.838;9.330;2023-07-16T03:58:03;98348.34;;;19.37;97.66
55604;BME280;41468;48.838;9.330;2023-07-16T04:00:29;98362.69;;;19.32;100.00
55604;BME280;41468;48.838;9.330;2023-07-16T04:02:56;98372.47;;;19.37;99.43
55604;BME280;41468;48.838;9.330;2023-07-16T04:05:23;98381.63;;;19.34;97.30
55604;BME280;41468;48.838;9.330;2023-07-16T04:07:50;98376.72;;;19.41;97.03
55604;BME280;41468;48.838;9.330;2023-07-16T04:10:17;98379.34;;;19.29;93.45
55604;BME280;41468;48.838;9.330;2023-07-16T04:12:44;98385.81;;;19.22;98.17
55604;BME280;41468;48.838;9.330;2023-07-16T04:15:11;98393.25;;;19.25;99.40
55604;BME280;41468;48.838;9.330;2023-07-16T04:17:38;98393.47;;;19.14;98.45
55604;BME280;41468;48.838;9.330;2023-07-16T04:20:05;98380.09;;;19.09;100.00
55604;BME280;41468;48.838;9.330;2023-07-16T04:22:34;98360.72;;;19.09;100.00
55604;BME280;41468;48.838;9.330;2023-07-16T04:25:06;98352.13;;;19.04;100.00
55604;BME280;41468;48.838;9.330;2023-07-16T04:27:32;98365.59;;;19.02;100.00
55604;BME280;41468;48.838;9.330;2023-07-16T04:29:59;98363.00;;;18.94;100.00
55604;BME280;41468;48.838;9.330;2023-07-16T04:32:26;98362.06;;;19.01;100.00
55604;BME280;41468;48.838;9.330;2023-07-16T04:34:53;98359.22;;;19.05;92.56
55604;BME280;41468;48.838;9.330;2023-07-16T04:37:20;98372.88;;;19.15;96.59
55604;BME280;41468;48.838;9.330;2023-07-16T04:39:47;98388.22;;;19.20;97.08
55604;BME280;41468;48.838;9.330;2023-07-16T04:42:14;98384.13;;;19.05;100.00
55604;BME280;41468;48.838;9.330;2023-07-16T04:44:40;98403.25;;;19.19;100.00
55604;BME280;41468;48.838;9.330;2023-07-16T04:47:07;98407.38;;;19.11;100.00
55604;BME280;41468;48.838;9.330;2023-07-16T04:49:34;98399.19;;;19.04;100.00
55604;BME280;41468;48.838;9.330;2023-07-16T04:52:02;98419.34;;;19.04;100.00
55604;BME280;41468;48.838;9.330;2023-07-16T04:54:28;98412.31;;;19.00;100.00
55604;BME280;41468;48.838;9.330;2023-07-16T04:56:55;98417.72;;;19.07;100.00
55604;BME280;41468;48.838;9.330;2023-07-16T04:59:22;98409.22;;;18.94;100.00
55604;BME280;41468;48.838;9.330;2023-07-16T05:01:54;98399.00;;;19.14;100.00
55604;BME280;41468;48.838;9.330;2023-07-16T05:04:21;98408.44;;;19.17;100.00
55604;BME280;41468;48.838;9.330;2023-07-16T05:06:47;98412.41;;;19.16;100.00
55604;BME280;41468;48.838;9.330;2023-07-16T05:09:14;98410.84;;;19.15;100.00
55604;BME280;41468;48.838;9.330;2023-07-16T05:11:41;98407.19;;;19.22;100.00
55604;BME280;41468;48.838;9.330;2023-07-16T05:14:12;98413.69;;;19.11;100.00
55604;BME280;41468;48.838;9.330;2023-07-16T05:16:44;98423.81;;;19.18;100.00
55604;BME280;41468;48.838;9.330;2023-07-16T05:19:11;98419.03;;;19.22;100.00
55604;BME280;41468;48.838;9.330;2023-07-16T05:21:37;98417.47;;;19.21;100.00
55604;BME280;41468;48.838;9.330;2023-07-16T05:24:04;98423.72;;;19.25;100.00
55604;BME280;41468;48.838;9.330;2023-07-16T05:26:31;98428.09;;;19.23;100.00
55604;BME280;41468;48.838;9.330;2023-07-16T05:28:59;98418.47;;;19.31;100.00
55604;BME280;41468;48.838;9.330;2023-07-16T05:31:37;98428.56;;;19.41;100.00
55604;BME280;41468;48.838;9.330;2023-07-16T05:34:04;98410.72;;;19.42;100.00
55604;BME280;41468;48.838;9.330;2023-07-16T05:36:31;98423.59;;;19.52;100.00
55604;BME280;41468;48.838;9.330;2023-07-16T05:39:09;98419.00;;;19.46;100.00
55604;BME280;41468;48.838;9.330;2023-07-16T05:41:46;98423.88;;;19.58;100.00
55604;BME280;41468;48.838;9.330;2023-07-16T05:44:13;98442.22;;;19.52;100.00
55604;BME280;41468;48.838;9.330;2023-07-16T05:46:39;98443.91;;;19.46;100.00
55604;BME280;41468;48.838;9.330;2023-07-16T05:49:06;98439.81;;;19.54;100.00
55604;BME280;41468;48.838;9.330;2023-07-16T05:51:33;98445.34;;;19.54;100.00
55604;BME280;41468;48.838;9.330;2023-07-16T05:54:00;98431.97;;;19.49;100.00
55604;BME280;41468;48.838;9.330;2023-07-16T05:56:27;98453.84;;;19.67;100.00
55604;BME280;41468;48.838;9.330;2023-07-16T05:58:53;98464.84;;;19.70;100.00
55604;BME280;41468;48.838;9.330;2023-07-16T06:01:20;98462.63;;;19.81;100.00
55604;BME280;41468;48.838;9.330;2023-07-16T06:03:47;98458.97;;;19.88;100.00
55604;BME280;41468;48.838;9.330;2023-07-16T06:06:27;98449.50;;;19.85;98.15
55604;BME280;41468;48.838;9.330;2023-07-16T06:08:54;98450.19;;;19.90;98.12
55604;BME280;41468;48.838;9.330;2023-07-16T06:11:21;98451.63;;;19.78;100.00
55604;BME280;41468;48.838;9.330;2023-07-16T06:13:48;98448.78;;;19.81;97.00
55604;BME280;41468;48.838;9.330;2023-07-16T06:16:15;98450.19;;;19.90;100.00
55604;BME280;41468;48.838;9.330;2023-07-16T06:18:42;98445.03;;;19.92;98.93
55604;BME280;41468;48.838;9.330;2023-07-16T06:21:09;98452.47;;;19.95;100.00
55604;BME280;41468;48.838;9.330;2023-07-16T06:23:36;98467.47;;;19.97;98.20
55604;BME280;41468;48.838;9.330;2023-07-16T06:26:02;98476.34;;;19.89;100.00
55604;BME280;41468;48.838;9.330;2023-07-16T06:28:29;98468.47;;;19.87;97.19
55604;BME280;41468;48.838;9.330;2023-07-16T06:30:56;98473.72;;;19.81;100.00
55604;BME280;41468;48.838;9.330;2023-07-16T06:33:23;98463.50;;;19.78;100.00
55604;BME280;41468;48.838;9.330;2023-07-16T06:35:52;98460.72;;;19.78;100.00
55604;BME280;41468;48.838;9.330;2023-07-16T06:38:19;98457.09;;;19.81;100.00
55604;BME280;41468;48.838;9.330;2023-07-16T06:40:51;98457.59;;;19.76;100.00
55604;BME280;41468;48.838;9.330;2023-07-16T06:43:18;98459.38;;;19.86;100.00
55604;BME280;41468;48.838;9.330;2023-07-16T06:45:45;98455.38;;;19.88;100.00
55604;BME280;41468;48.838;9.330;2023-07-16T06:48:12;98459.75;;;19.89;100.00
55604;BME280;41468;48.838;9.330;2023-07-16T06:50:39;98453.25;;;19.95;100.00
55604;BME280;41468;48.838;9.330;2023-07-16T06:53:17;98456.16;;;20.08;100.00
55604;BME280;41468;48.838;9.330;2023-07-16T06:55:44;98446.41;;;20.20;99.06
55604;BME280;41468;48.838;9.330;2023-07-16T06:58:11;98464.28;;;20.35;96.96
55604;BME280;41468;48.838;9.330;2023-07-16T07:00:37;98450.16;;;20.29;100.00
55604;BME280;41468;48.838;9.330;2023-07-16T07:03:04;98449.88;;;20.24;99.28
55604;BME280;41468;48.838;9.330;2023-07-16T07:05:31;98456.06;;;20.32;97.52
55604;BME280;41468;48.838;9.330;2023-07-16T07:08:03;98461.75;;;20.24;94.84
55604;BME280;41468;48.838;9.330;2023-07-16T07:10:30;98459.53;;;20.36;92.68
55604;BME280;41468;48.838;9.330;2023-07-16T07:12:59;98471.97;;;20.47;88.50
55604;BME280;41468;48.838;9.330;2023-07-16T07:15:26;98467.41;;;20.57;83.71
55604;BME280;41468;48.838;9.330;2023-07-16T07:17:52;98462.06;;;20.99;87.98
55604;BME280;41468;48.838;9.330;2023-07-16T07:20:19;98461.53;;;21.21;83.12
55604;BME280;41468;48.838;9.330;2023-07-16T07:22:46;98456.13;;;21.46;81.43
55604;BME280;41468;48.838;9.330;2023-07-16T07:25:13;98454.00;;;21.67;78.75
55604;BME280;41468;48.838;9.330;2023-07-16T07:27:40;98451.56;;;21.81;79.74
55604;BME280;41468;48.838;9.330;2023-07-16T07:30:07;98451.22;;;22.09;76.50
55604;BME280;41468;48.838;9.330;2023-07-16T07:32:36;98436.66;;;22.17;76.43
55604;BME280;41468;48.838;9.330;2023-07-16T07:35:04;98440.72;;;21.87;75.73
55604;BME280;41468;48.838;9.330;2023-07-16T07:37:31;98446.78;;;21.69;74.01
55604;BME280;41468;48.838;9.330;2023-07-16T07:39:58;98456.94;;;21.89;76.11
55604;BME280;41468;48.838;9.330;2023-07-16T07:42:25;98459.88;;;22.11;72.85
55604;BME280;41468;48.838;9.330;2023-07-16T07:47:23;98483.31;;;21.68;70.22
55604;BME280;41468;48.838;9.330;2023-07-16T07:49:51;98479.38;;;21.52;71.63
55604;BME280;41468;48.838;9.330;2023-07-16T07:52:18;98474.69;;;21.49;72.16
55604;BME280;41468;48.838;9.330;2023-07-16T07:54:45;98476.59;;;21.52;70.57
55604;BME280;41468;48.838;9.330;2023-07-16T07:57:12;98466.09;;;21.44;71.27
55604;BME280;41468;48.838;9.330;2023-07-16T07:59:42;98473.13;;;21.32;75.66
55604;BME280;41468;48.838;9.330;2023-07-16T08:02:09;98478.59;;;21.19;75.92
55604;BME280;41468;48.838;9.330;2023-07-16T08:04:35;98479.22;;;21.10;73.61
55604;BME280;41468;48.838;9.330;2023-07-16T08:07:03;98484.69;;;21.14;78.85
55604;BME280;41468;48.838;9.330;2023-07-16T08:09:29;98486.00;;;21.26;75.86
55604;BME280;41468;48.838;9.330;2023-07-16T08:11:56;98493.81;;;21.31;75.44
55604;BME280;41468;48.838;9.330;2023-07-16T08:14:23;98488.31;;;21.27;73.36
55604;BME280;41468;48.838;9.330;2023-07-16T08:16:50;98489.44;;;21.46;74.01
55604;BME280;41468;48.838;9.330;2023-07-16T08:19:17;98484.75;;;21.59;73.28
55604;BME280;41468;48.838;9.330;2023-07-16T08:21:44;98492.19;;;21.79;71.44
55604;BME280;41468;48.838;9.330;2023-07-16T08:24:10;98486.06;;;21.55;73.71
55604;BME280;41468;48.838;9.330;2023-07-16T08:26:37;98494.47;;;21.51;72.26
55604;BME280;41468;48.838;9.330;2023-07-16T08:29:04;98482.16;;;21.52;71.98
55604;BME280;41468;48.838;9.330;2023-07-16T08:31:31;98475.66;;;21.43;71.59
55604;BME280;41468;48.838;9.330;2023-07-16T08:33:58;98480.31;;;21.62;69.17
55604;BME280;41468;48.838;9.330;2023-07-16T08:36:28;98476.56;;;21.69;70.59
55604;BME280;41468;48.838;9.330;2023-07-16T08:38:55;98462.91;;;21.74;69.92
55604;BME280;41468;48.838;9.330;2023-07-16T08:41:22;98454.47;;;21.78;65.76
55604;BME280;41468;48.838;9.330;2023-07-16T08:43:50;98457.84;;;21.86;69.17
55604;BME280;41468;48.838;9.330;2023-07-16T08:46:16;98461.53;;;21.95;69.63
55604;BME280;41468;48.838;9.330;2023-07-16T08:48:44;98466.75;;;21.93;70.13
55604;BME280;41468;48.838;9.330;2023-07-16T08:51:14;98476.91;;;22.13;69.16
55604;BME280;41468;48.838;9.330;2023-07-16T08:53:42;98462.75;;;22.49;63.90
55604;BME280;41468;48.838;9.330;2023-07-16T08:56:09;98477.78;;;22.77;63.76
55604;BME280;41468;48.838;9.330;2023-07-16T08:58:37;98479.09;;;22.85;64.70
55604;BME280;41468;48.838;9.330;2023-07-16T09:01:05;98475.88;;;22.87;63.46
55604;BME280;41468;48.838;9.330;2023-07-16T09:03:32;98483.34;;;22.77;62.34
55604;BME280;41468;48.838;9.330;2023-07-16T09:05:59;98478.00;;;22.96;61.08
55604;BME280;41468;48.838;9.330;2023-07-16T09:08:26;98484.38;;;22.96;58.78
55604;BME280;41468;48.838;9.330;2023-07-16T09:10:56;98480.66;;;23.12;60.31
55604;BME280;41468;48.838;9.330;2023-07-16T09:13:24;98484.25;;;23.00;62.96
55604;BME280;41468;48.838;9.330;2023-07-16T09:15:56;98492.91;;;23.27;58.40
55604;BME280;41468;48.838;9.330;2023-07-16T09:18:26;98488.81;;;23.54;58.82
55604;BME280;41468;48.838;9.330;2023-07-16T09:20:55;98474.94;;;23.98;55.22
55604;BME280;41468;48.838;9.330;2023-07-16T09:23:24;98472.03;;;24.33;55.90
55604;BME280;41468;48.838;9.330;2023-07-16T09:25:53;98466.44;;;24.55;55.49
55604;BME280;41468;48.838;9.330;2023-07-16T09:28:21;98471.06;;;24.80;53.24
55604;BME280;41468;48.838;9.330;2023-07-16T09:30:48;98469.09;;;24.99;50.54
55604;BME280;41468;48.838;9.330;2023-07-16T09:33:19;98467.84;;;25.09;52.50
55604;BME280;41468;48.838;9.330;2023-07-16T09:35:49;98474.28;;;25.28;51.21
55604;BME280;41468;48.838;9.330;2023-07-16T09:38:17;98466.53;;;25.23;49.67
55604;BME280;41468;48.838;9.330;2023-07-16T09:40:45;98466.84;;;25.34;49.75
55604;BME280;41468;48.838;9.330;2023-07-16T09:43:12;98467.78;;;25.49;49.92
55604;BME280;41468;48.838;9.330;2023-07-16T09:45:41;98471.84;;;25.67;49.28
55604;BME280;41468;48.838;9.330;2023-07-16T09:48:09;98476.81;;;25.72;48.08
55604;BME280;41468;48.838;9.330;2023-07-16T09:50:36;98455.84;;;25.76;48.35
55604;BME280;41468;48.838;9.330;2023-07-16T09:53:04;98455.66;;;25.71;49.68
55604;BME280;41468;48.838;9.330;2023-07-16T09:55:32;98471.63;;;25.15;50.63
55604;BME280;41468;48.838;9.330;2023-07-16T09:58:04;98471.47;;;25.28;50.20
55604;BME280;41468;48.838;9.330;2023-07-16T10:00:34;98458.19;;;25.87;48.40
55604;BME280;41468;48.838;9.330;2023-07-16T10:03:07;98447.22;;;26.26;46.89
55604;BME280;41468;48.838;9.330;2023-07-16T10:05:38;98442.19;;;26.39;45.63
55604;BME280;41468;48.838;9.330;2023-07-16T10:08:18;98457.59;;;26.35;48.32
55604;BME280;41468;48.838;9.330;2023-07-16T10:10:53;98467.63;;;25.81;47.62
55604;BME280;41468;48.838;9.330;2023-07-16T10:13:23;98463.59;;;25.45;48.64
55604;BME280;41468;48.838;9.330;2023-07-16T10:15:51;98457.84;;;25.57;48.48
55604;BME280;41468;48.838;9.330;2023-07-16T10:18:27;98474.63;;;25.48;48.99
55604;BME280;41468;48.838;9.330;2023-07-16T10:21:00;98465.03;;;25.00;48.72
55604;BME280;41468;48.838;9.330;2023-07-16T10:23:39;98467.53;;;24.98;51.34
55604;BME280;41468;48.838;9.330;2023-07-16T10:26:09;98456.75;;;25.37;52.07
55604;BME280;41468;48.838;9.330;2023-07-16T10:28:37;98452.53;;;26.06;48.09
55604;BME280;41468;48.838;9.330;2023-07-16T10:31:25;98457.88;;;26.46;45.67
55604;BME280;41468;48.838;9.330;2023-07-16T10:34:01;98456.50;;;26.32;46.36
55604;BME280;41468;48.838;9.330;2023-07-16T10:36:28;98451.53;;;26.36;47.56
55604;BME280;41468;48.838;9.330;2023-07-16T10:39:02;98451.31;;;25.79;48.05
55604;BME280;41468;48.838;9.330;2023-07-16T10:41:30;98446.34;;;25.65;48.92
55604;BME280;41468;48.838;9.330;2023-07-16T10:43:58;98446.81;;;25.54;51.42
55604;BME280;41468;48.838;9.330;2023-07-16T10:46:26;98441.84;;;25.95;49.65
55604;BME280;41468;48.838;9.330;2023-07-16T10:48:53;98436.09;;;25.98;49.78
55604;BME280;41468;48.838;9.330;2023-07-16T10:51:25;98431.13;;;25.75;49.57
55604;BME280;41468;48.838;9.330;2023-07-16T10:53:55;98440.75;;;25.46;50.71
55604;BME280;41468;48.838;9.330;2023-07-16T10:56:23;98449.91;;;25.19;50.16
55604;BME280;41468;48.838;9.330;2023-07-16T10:59:02;98440.06;;;25.05;50.16
55604;BME280;41468;48.838;9.330;2023-07-16T11:01:29;98434.72;;;25.48;49.10
55604;BME280;41468;48.838;9.330;2023-07-16T11:04:00;98430.78;;;26.00;50.57
55604;BME280;41468;48.838;9.330;2023-07-16T11:06:28;98430.88;;;26.34;49.26
55604;BME280;41468;48.838;9.330;2023-07-16T11:08:55;98432.19;;;26.57;48.85
55604;BME280;41468;48.838;9.330;2023-07-16T11:11:31;98435.66;;;26.42;48.79
55604;BME280;41468;48.838;9.330;2023-07-16T11:13:58;98424.72;;;26.63;48.13
55604;BME280;41468;48.838;9.330;2023-07-16T11:16:25;98436.34;;;26.95;47.38
55604;BME280;41468;48.838;9.330;2023-07-16T11:18:52;98434.19;;;27.23;46.37
55604;BME280;41468;48.838;9.330;2023-07-16T11:21:19;98445.16;;;27.36;44.92
55604;BME280;41468;48.838;9.330;2023-07-16T11:23:46;98444.75;;;27.28;46.04
55604;BME280;41468;48.838;9.330;2023-07-16T11:26:14;98432.16;;;27.23;45.09
55604;BME280;41468;48.838;9.330;2023-07-16T11:28:42;98432.44;;;27.49;44.10
55604;BME280;41468;48.838;9.330;2023-07-16T11:31:15;98429.81;;;27.46;44.34
55604;BME280;41468;48.838;9.330;2023-07-16T11:33:45;98432.31;;;27.83;44.17
55604;BME280;41468;48.838;9.330;2023-07-16T11:36:13;98429.50;;;28.12;43.32
55604;BME280;41468;48.838;9.330;2023-07-16T11:38:40;98421.00;;;28.07;44.77
55604;BME280;41468;48.838;9.330;2023-07-16T11:41:07;98428.66;;;28.06;42.90
55604;BME280;41468;48.838;9.330;2023-07-16T11:43:35;98431.56;;;27.58;43.46
55604;BME280;41468;48.838;9.330;2023-07-16T11:46:05;98427.56;;;27.11;45.60
55604;BME280;41468;48.838;9.330;2023-07-16T11:48:32;98419.88;;;27.21;44.66
55604;BME280;41468;48.838;9.330;2023-07-16T11:50:58;98416.19;;;27.53;46.23
55604;BME280;41468;48.838;9.330;2023-07-16T11:53:25;98412.75;;;27.73;43.84
55604;BME280;41468;48.838;9.330;2023-07-16T11:55:53;98407.16;;;28.03;44.14
55604;BME280;41468;48.838;9.330;2023-07-16T11:58:20;98409.63;;;27.71;45.09
55604;BME280;41468;48.838;9.330;2023-07-16T12:00:47;98408.22;;;27.13;44.89
55604;BME280;41468;48.838;9.330;2023-07-16T12:03:14;98400.19;;;27.30;45.11
55604;BME280;41468;48.838;9.330;2023-07-16T12:05:41;98395.78;;;27.53;45.24
55604;BME280;41468;48.838;9.330;2023-07-16T12:08:18;98396.53;;;27.39;45.42
55604;BME280;41468;48.838;9.330;2023-07-16T12:10:45;98399.59;;;27.26;46.27
55604;BME280;41468;48.838;9.330;2023-07-16T12:13:22;98397.53;;;27.65;45.10
55604;BME280;41468;48.838;9.330;2023-07-16T12:15:48;98401.94;;;27.96;44.41
55604;BME280;41468;48.838;9.330;2023-07-16T12:18:15;98393.88;;;28.33;43.88
55604;BME280;41468;48.838;9.330;2023-07-16T12:20:42;98390.19;;;28.57;42.97
55604;BME280;41468;48.838;9.330;2023-07-16T12:23:09;98384.94;;;28.50;41.81
55604;BME280;41468;48.838;9.330;2023-07-16T12:25:36;98384.06;;;28.58;42.01
55604;BME280;41468;48.838;9.330;2023-07-16T12:28:03;98387.25;;;27.47;42.15
55604;BME280;41468;48.838;9.330;2023-07-16T12:30:30;98381.25;;;26.34;44.13
55604;BME280;41468;48.838;9.330;2023-07-16T12:32:56;98368.22;;;26.31;44.68
55604;BME280;41468;48.838;9.330;2023-07-16T12:35:34;98364.00;;;26.69;46.08
55604;BME280;41468;48.838;9.330;2023-07-16T12:38:06;98372.31;;;27.26;45.89
55604;BME280;41468;48.838;9.330;2023-07-16T12:40:37;98364.97;;;27.83;45.27
55604;BME280;41468;48.838;9.330;2023-07-16T12:43:07;98357.00;;;28.26;43.61
55604;BME280;41468;48.838;9.330;2023-07-16T12:45:34;98365.50;;;28.31;43.95
55604;BME280;41468;48.838;9.330;2023-07-16T12:48:01;98366.63;;;27.89;42.39
55604;BME280;41468;48.838;9.330;2023-07-16T12:50:27;98366.38;;;27.48;43.24
55604;BME280;41468;48.838;9.330;2023-07-16T12:52:56;98366.66;;;27.36;45.18
55604;BME280;41468;48.838;9.330;2023-07-16T12:55:22;98369.06;;;26.80;45.59
55604;BME280;41468;48.838;9.330;2023-07-16T12:57:54;98361.38;;;27.14;46.50
55604;BME280;41468;48.838;9.330;2023-07-16T13:00:21;98366.00;;;27.56;45.53
55604;BME280;41468;48.838;9.330;2023-07-16T13:02:59;98362.34;;;27.79;45.31
55604;BME280;41468;48.838;9.330;2023-07-16T13:05:26;98363.50;;;27.72;44.34
55604;BME280;41468;48.838;9.330;2023-07-16T13:07:53;98360.56;;;27.37;45.47
55604;BME280;41468;48.838;9.330;2023-07-16T13:10:20;98357.69;;;27.61;45.05
55604;BME280;41468;48.838;9.330;2023-07-16T13:12:49;98360.72;;;27.87;44.36
55604;BME280;41468;48.838;9.330;2023-07-16T13:15:16;98351.72;;;27.98;43.62
55604;BME280;41468;48.838;9.330;2023-07-16T13:17:43;98357.03;;;28.11;44.00
55604;BME280;41468;48.838;9.330;2023-07-16T13:20:10;98343.34;;;28.48;44.11
55604;BME280;41468;48.838;9.330;2023-07-16T13:22:38;98344.97;;;28.75;44.09
55604;BME280;41468;48.838;9.330;2023-07-16T13:25:05;98342.81;;;29.05;43.01
55604;BME280;41468;48.838;9.330;2023-07-16T13:27:32;98347.56;;;28.99;41.25
55604;BME280;41468;48.838;9.330;2023-07-16T13:29:59;98343.69;;;28.76;40.60
55604;BME280;41468;48.838;9.330;2023-07-16T13:32:26;98342.97;;;28.61;40.46